LIPZ/VCE METAR and TAF weather

Enter ICAO airport designator
Station Type Date Time Source
LIPZ METAR 2021/02/27 21:20 UTC NOAA

LIPZ 272120Z 01006KT CAVOK 09/02 Q1030 NOSIG


Station Type Date Time Source
LIPZ Decoded METAR 2021/02/27 21:20 UTC NOAA

Venezia / Tessera, Italy (LIPZ) 45-30N 012-20E 6M
Feb 27, 2021 - 04:20 PM EST / 2021.02.27 2120 UTC
Wind: from the N (010 degrees) at 7 MPH (6 KT):0
Visibility: greater than 7 mile(s):0
Temperature: 48 F (9 C)
Dew Point: 35 F (2 C)
Relative Humidity: 61%
Pressure (altimeter): 30.42 in. Hg (1030 hPa)
ob: LIPZ 272120Z 01006KT CAVOK 09/02 Q1030 NOSIG
cycle: 21

Station Type Date Time Source
LIPZ TAF 2021/02/27 18:26 UTC NOAA

TAF LIPZ 271700Z 2718/2824 07013KT CAVOK

Example: see airport list